createdAt,value
2019-03-01T00:00:03.931Z,801.81
2019-03-01T00:00:08.249Z,801.79
2019-03-01T00:00:12.547Z,801.82
2019-03-01T00:00:16.771Z,801.81
2019-03-01T00:00:21.065Z,801.83
2019-03-01T00:00:25.376Z,801.79
2019-03-01T00:00:29.694Z,801.77
2019-03-01T00:00:33.986Z,801.81
2019-03-01T00:00:38.278Z,801.84
2019-03-01T00:00:42.576Z,801.77
2019-03-01T00:00:46.778Z,801.8
2019-03-01T00:00:51.074Z,801.78
2019-03-01T00:00:55.370Z,801.78
2019-03-01T00:00:59.675Z,801.8
2019-03-01T00:01:04.136Z,801.81
2019-03-01T00:01:08.485Z,801.78
2019-03-01T00:01:12.798Z,801.78
2019-03-01T00:01:16.999Z,801.8
2019-03-01T00:01:21.302Z,801.79
2019-03-01T00:01:25.537Z,801.79
2019-03-01T00:01:29.837Z,801.78
2019-03-01T00:01:34.145Z,801.81
2019-03-01T00:01:38.360Z,801.78
2019-03-01T00:01:42.659Z,801.75
2019-03-01T00:01:46.946Z,801.81
2019-03-01T00:01:51.149Z,801.76
2019-03-01T00:01:55.483Z,801.74
2019-03-01T00:01:59.778Z,801.75
2019-03-01T00:02:04.271Z,801.71
2019-03-01T00:02:08.571Z,801.75
2019-03-01T00:02:12.912Z,801.74
2019-03-01T00:02:17.116Z,801.72
2019-03-01T00:02:21.408Z,801.75
2019-03-01T00:02:25.612Z,801.72
2019-03-01T00:02:29.915Z,801.71
2019-03-01T00:02:34.199Z,801.74
2019-03-01T00:02:38.487Z,801.7
2019-03-01T00:02:42.681Z,801.71
2019-03-01T00:02:46.988Z,801.73
2019-03-01T00:02:51.272Z,801.75
2019-03-01T00:02:55.563Z,801.73
2019-03-01T00:02:59.775Z,801.74
2019-03-01T00:03:04.085Z,801.71
2019-03-01T00:03:08.386Z,801.73
2019-03-01T00:03:12.696Z,801.71
2019-03-01T00:03:16.983Z,801.73
2019-03-01T00:03:21.284Z,801.76
2019-03-01T00:03:25.586Z,801.76
2019-03-01T00:03:29.777Z,801.69
2019-03-01T00:03:34.105Z,801.75
2019-03-01T00:03:38.407Z,801.77
2019-03-01T00:03:42.696Z,801.74
2019-03-01T00:03:46.981Z,801.73
2019-03-01T00:03:51.297Z,801.76
2019-03-01T00:03:55.595Z,801.77
2019-03-01T00:03:59.886Z,801.78
2019-03-01T00:04:04.204Z,801.74
2019-03-01T00:04:08.489Z,801.78
2019-03-01T00:04:12.599Z,801.76
2019-03-01T00:04:16.888Z,801.78
2019-03-01T00:04:21.182Z,801.78
2019-03-01T00:04:25.508Z,801.78
2019-03-01T00:04:29.813Z,801.77
2019-03-01T00:04:34.134Z,801.76
2019-03-01T00:04:38.499Z,801.76
2019-03-01T00:04:42.786Z,801.77
2019-03-01T00:04:46.981Z,801.72
2019-03-01T00:04:51.270Z,801.75
2019-03-01T00:04:55.559Z,801.79
2019-03-01T00:04:59.849Z,801.78
2019-03-01T00:05:04.234Z,801.77
2019-03-01T00:05:08.525Z,801.79
2019-03-01T00:05:12.844Z,801.77
2019-03-01T00:05:17.154Z,801.76
2019-03-01T00:05:21.448Z,801.75
2019-03-01T00:05:25.749Z,801.75
2019-03-01T00:05:30.059Z,801.77
2019-03-01T00:05:34.270Z,801.75
2019-03-01T00:05:38.572Z,801.77
2019-03-01T00:05:42.874Z,801.77
2019-03-01T00:05:47.189Z,801.76
2019-03-01T00:05:51.481Z,801.71
2019-03-01T00:05:55.776Z,801.7
2019-03-01T00:06:00.076Z,801.75
2019-03-01T00:06:04.371Z,801.77
2019-03-01T00:06:08.670Z,801.77
2019-03-01T00:06:12.963Z,801.77
2019-03-01T00:06:17.259Z,801.78
2019-03-01T00:06:21.566Z,801.78
2019-03-01T00:06:25.850Z,801.78
2019-03-01T00:06:30.157Z,801.78
2019-03-01T00:06:34.211Z,801.78
2019-03-01T00:06:38.503Z,801.78
2019-03-01T00:06:42.791Z,801.75
2019-03-01T00:06:47.038Z,801.76
2019-03-01T00:06:51.343Z,801.81
2019-03-01T00:06:55.634Z,801.77
2019-03-01T00:06:59.925Z,801.77
2019-03-01T00:07:04.249Z,801.78
2019-03-01T00:07:08.581Z,801.79
2019-03-01T00:07:12.878Z,801.8
2019-03-01T00:07:17.167Z,801.79
2019-03-01T00:07:21.460Z,801.8
2019-03-01T00:07:25.744Z,801.79
2019-03-01T00:07:30.032Z,801.77
2019-03-01T00:07:34.319Z,801.79
2019-03-01T00:07:38.527Z,801.8
2019-03-01T00:07:42.825Z,801.79
2019-03-01T00:07:47.048Z,801.79
2019-03-01T00:07:51.335Z,801.77
2019-03-01T00:07:55.638Z,801.76
2019-03-01T00:07:59.931Z,801.78
2019-03-01T00:08:04.237Z,801.76
2019-03-01T00:08:08.526Z,801.73
2019-03-01T00:08:12.818Z,801.74
2019-03-01T00:08:17.117Z,801.76
2019-03-01T00:08:21.317Z,801.75
2019-03-01T00:08:25.614Z,801.73
2019-03-01T00:08:29.899Z,801.75
2019-03-01T00:08:34.100Z,801.73
2019-03-01T00:08:38.390Z,801.73
2019-03-01T00:08:42.721Z,801.72
2019-03-01T00:08:47.011Z,801.74
2019-03-01T00:08:51.314Z,801.75
2019-03-01T00:08:55.330Z,801.78
2019-03-01T00:08:59.653Z,801.76
2019-03-01T00:09:04.065Z,801.76
2019-03-01T00:09:08.359Z,801.79
2019-03-01T00:09:12.642Z,801.8
2019-03-01T00:09:16.929Z,801.74
2019-03-01T00:09:21.219Z,801.78
2019-03-01T00:09:25.515Z,801.79
2019-03-01T00:09:29.813Z,801.79
2019-03-01T00:09:34.007Z,801.8
2019-03-01T00:09:38.305Z,801.79
2019-03-01T00:09:42.602Z,801.79
2019-03-01T00:09:46.890Z,801.79
2019-03-01T00:09:51.179Z,801.79
2019-03-01T00:09:55.506Z,801.81
2019-03-01T00:09:59.789Z,801.82
2019-03-01T00:10:04.237Z,801.77
2019-03-01T00:10:08.547Z,801.81
2019-03-01T00:10:12.860Z,801.8
2019-03-01T00:10:17.150Z,801.82
2019-03-01T00:10:21.444Z,801.83
2019-03-01T00:10:27.608Z,801.84
2019-03-01T00:10:31.820Z,801.8
2019-03-01T00:10:36.109Z,801.83
2019-03-01T00:10:40.313Z,801.86
2019-03-01T00:10:44.536Z,801.84
2019-03-01T00:10:48.823Z,801.84
2019-03-01T00:10:53.116Z,801.83
2019-03-01T00:10:57.405Z,801.86
2019-03-01T00:11:01.705Z,801.86
2019-03-01T00:11:05.902Z,801.82
2019-03-01T00:11:10.266Z,801.87
2019-03-01T00:11:14.502Z,801.86
2019-03-01T00:11:18.804Z,801.85
2019-03-01T00:11:23.106Z,801.85
2019-03-01T00:11:27.394Z,801.87
2019-03-01T00:11:31.685Z,801.89
2019-03-01T00:11:36.013Z,801.86
2019-03-01T00:11:40.211Z,801.87
2019-03-01T00:11:44.547Z,801.83
2019-03-01T00:11:48.851Z,801.9
2019-03-01T00:11:53.148Z,801.85
2019-03-01T00:11:57.440Z,801.88
2019-03-01T00:12:01.748Z,801.91
2019-03-01T00:12:06.061Z,801.93
2019-03-01T00:12:10.269Z,801.94
2019-03-01T00:12:14.614Z,801.94
2019-03-01T00:12:18.913Z,801.91
2019-03-01T00:12:23.197Z,801.86
2019-03-01T00:12:27.495Z,801.95
2019-03-01T00:12:31.705Z,801.9
2019-03-01T00:12:36.020Z,801.93
2019-03-01T00:12:40.328Z,801.88
2019-03-01T00:12:44.629Z,801.93
2019-03-01T00:12:48.831Z,801.92
2019-03-01T00:12:53.242Z,801.92
2019-03-01T00:12:57.535Z,801.9
2019-03-01T00:13:01.829Z,801.87
2019-03-01T00:13:06.150Z,801.91
2019-03-01T00:13:10.448Z,801.87
2019-03-01T00:13:14.752Z,801.85
2019-03-01T00:13:19.041Z,801.86
2019-03-01T00:13:23.325Z,801.88
2019-03-01T00:13:27.619Z,801.85
2019-03-01T00:13:31.916Z,801.89
2019-03-01T00:13:36.203Z,801.88
2019-03-01T00:13:40.498Z,801.9
2019-03-01T00:13:44.789Z,801.9
2019-03-01T00:13:49.075Z,801.86
2019-03-01T00:13:53.375Z,801.88
2019-03-01T00:13:57.681Z,801.87
2019-03-01T00:14:01.973Z,801.88
2019-03-01T00:14:06.287Z,801.88
2019-03-01T00:14:10.586Z,801.89
2019-03-01T00:14:14.937Z,801.9
2019-03-01T00:14:19.175Z,801.9
2019-03-01T00:14:23.480Z,801.9
2019-03-01T00:14:27.818Z,801.86
2019-03-01T00:14:32.113Z,801.83
2019-03-01T00:14:36.402Z,801.85
2019-03-01T00:14:40.688Z,801.88
2019-03-01T00:14:44.982Z,801.85
2019-03-01T00:14:49.203Z,801.81
2019-03-01T00:14:53.503Z,801.78
2019-03-01T00:14:57.796Z,801.84
2019-03-01T00:15:02.095Z,801.84
2019-03-01T00:15:06.394Z,801.85
2019-03-01T00:15:10.747Z,801.83
2019-03-01T00:15:14.966Z,801.82
2019-03-01T00:15:19.254Z,801.8
2019-03-01T00:15:23.551Z,801.82
2019-03-01T00:15:27.839Z,801.85
2019-03-01T00:15:32.130Z,801.79
2019-03-01T00:15:36.339Z,801.85
2019-03-01T00:15:40.632Z,801.84
2019-03-01T00:15:44.980Z,801.84
2019-03-01T00:15:49.172Z,801.82
2019-03-01T00:15:53.462Z,801.82
2019-03-01T00:15:57.750Z,801.86
2019-03-01T00:16:01.946Z,801.83
2019-03-01T00:16:06.141Z,801.84
2019-03-01T00:16:10.439Z,801.84
2019-03-01T00:16:14.749Z,801.84
2019-03-01T00:16:19.043Z,801.83
2019-03-01T00:16:23.346Z,801.85
2019-03-01T00:16:27.644Z,801.82
2019-03-01T00:16:31.970Z,801.82
2019-03-01T00:16:36.169Z,801.85
2019-03-01T00:16:40.460Z,801.82
2019-03-01T00:16:44.752Z,801.82
2019-03-01T00:16:49.083Z,801.78
2019-03-01T00:16:53.386Z,801.82
2019-03-01T00:16:57.722Z,801.82
2019-03-01T00:17:02.015Z,801.8
2019-03-01T00:17:06.303Z,801.77
2019-03-01T00:17:10.589Z,801.86
2019-03-01T00:17:14.792Z,801.8
2019-03-01T00:17:19.119Z,801.81
2019-03-01T00:17:23.467Z,801.78
2019-03-01T00:17:27.667Z,801.78
2019-03-01T00:17:31.973Z,801.79
2019-03-01T00:17:36.266Z,801.75
2019-03-01T00:17:40.357Z,801.77
2019-03-01T00:17:44.650Z,801.81
2019-03-01T00:17:48.759Z,801.76
2019-03-01T00:17:53.054Z,801.78
2019-03-01T00:17:57.345Z,801.75
2019-03-01T00:18:01.642Z,801.76
2019-03-01T00:18:05.930Z,801.78
2019-03-01T00:18:10.219Z,801.76
2019-03-01T00:18:14.516Z,801.73
2019-03-01T00:18:18.816Z,801.77
2019-03-01T00:18:23.107Z,801.74
2019-03-01T00:18:27.400Z,801.78
2019-03-01T00:18:31.717Z,801.82
2019-03-01T00:18:36.004Z,801.79
2019-03-01T00:18:40.312Z,801.81
2019-03-01T00:18:44.596Z,801.81
2019-03-01T00:18:48.789Z,801.81
2019-03-01T00:18:53.088Z,801.87
2019-03-01T00:18:57.395Z,801.85
2019-03-01T00:19:01.681Z,801.84
2019-03-01T00:19:05.977Z,801.83
2019-03-01T00:19:10.186Z,801.87
2019-03-01T00:19:14.484Z,801.89
2019-03-01T00:19:18.778Z,801.81
2019-03-01T00:19:23.109Z,801.86
2019-03-01T00:19:27.428Z,801.91
2019-03-01T00:19:31.711Z,801.85
2019-03-01T00:19:35.998Z,801.88
2019-03-01T00:19:40.319Z,801.89
2019-03-01T00:19:44.513Z,801.91
2019-03-01T00:19:48.706Z,801.87
2019-03-01T00:19:52.950Z,801.89
2019-03-01T00:19:57.248Z,801.85
2019-03-01T00:20:01.681Z,801.81
2019-03-01T00:20:05.981Z,801.86
2019-03-01T00:20:10.277Z,801.85
2019-03-01T00:20:14.588Z,801.88
2019-03-01T00:20:18.882Z,801.85
2019-03-01T00:20:23.173Z,801.86
2019-03-01T00:20:27.495Z,801.88
2019-03-01T00:20:31.790Z,801.83
2019-03-01T00:20:37.986Z,801.8
2019-03-01T00:20:42.186Z,801.8
2019-03-01T00:20:46.480Z,801.81
2019-03-01T00:20:50.714Z,801.84
2019-03-01T00:20:55.012Z,801.86
2019-03-01T00:20:59.316Z,801.85
2019-03-01T00:21:03.619Z,801.86
2019-03-01T00:21:07.910Z,801.82
2019-03-01T00:21:12.214Z,801.79
2019-03-01T00:21:16.520Z,801.79
2019-03-01T00:21:20.820Z,801.89
2019-03-01T00:21:25.108Z,801.85
2019-03-01T00:21:29.415Z,801.82
2019-03-01T00:21:33.800Z,801.86
2019-03-01T00:21:38.087Z,801.83
2019-03-01T00:21:42.275Z,801.81
2019-03-01T00:21:46.475Z,801.79
2019-03-01T00:21:50.661Z,801.8
2019-03-01T00:21:54.953Z,801.84
2019-03-01T00:21:59.239Z,801.83
2019-03-01T00:22:03.538Z,801.79
2019-03-01T00:22:07.828Z,801.79
2019-03-01T00:22:12.114Z,801.76
2019-03-01T00:22:16.422Z,801.78
2019-03-01T00:22:20.725Z,801.79
2019-03-01T00:22:25.083Z,801.83
2019-03-01T00:22:29.412Z,801.84
2019-03-01T00:22:33.767Z,801.81
2019-03-01T00:22:38.062Z,801.79
2019-03-01T00:22:42.356Z,801.8
2019-03-01T00:22:46.647Z,801.78
2019-03-01T00:22:50.983Z,801.83
2019-03-01T00:22:55.273Z,801.81
2019-03-01T00:22:59.603Z,801.81
2019-03-01T00:23:03.906Z,801.79
2019-03-01T00:23:08.204Z,801.82
2019-03-01T00:23:12.498Z,801.83
2019-03-01T00:23:16.827Z,801.86
2019-03-01T00:23:21.118Z,801.84
2019-03-01T00:23:25.409Z,801.83
2019-03-01T00:23:29.702Z,801.84
2019-03-01T00:23:33.994Z,801.8
2019-03-01T00:23:38.284Z,801.82
2019-03-01T00:23:42.572Z,801.88
2019-03-01T00:23:46.906Z,801.84
2019-03-01T00:23:51.192Z,801.82
2019-03-01T00:23:55.532Z,801.78
2019-03-01T00:23:59.827Z,801.8
2019-03-01T00:24:04.135Z,801.81
2019-03-01T00:24:08.427Z,801.81
2019-03-01T00:24:12.722Z,801.82
2019-03-01T00:24:16.917Z,801.83
2019-03-01T00:24:21.207Z,801.81
2019-03-01T00:24:25.502Z,801.77
2019-03-01T00:24:29.793Z,801.82
2019-03-01T00:24:34.084Z,801.84
2019-03-01T00:24:38.289Z,801.79
2019-03-01T00:24:42.563Z,801.82
2019-03-01T00:24:46.865Z,801.82
2019-03-01T00:24:51.233Z,801.78
2019-03-01T00:24:55.541Z,801.83
2019-03-01T00:24:59.831Z,801.84
2019-03-01T00:25:04.114Z,801.8
2019-03-01T00:25:08.416Z,801.8
2019-03-01T00:25:12.704Z,801.76
2019-03-01T00:25:16.992Z,801.77
2019-03-01T00:25:21.279Z,801.76
2019-03-01T00:25:25.478Z,801.75
2019-03-01T00:25:29.787Z,801.71
2019-03-01T00:25:34.075Z,801.72
2019-03-01T00:25:38.361Z,801.7
2019-03-01T00:25:42.670Z,801.75
2019-03-01T00:25:46.959Z,801.73
2019-03-01T00:25:51.254Z,801.76
2019-03-01T00:25:55.537Z,801.71
2019-03-01T00:25:59.845Z,801.75
2019-03-01T00:26:04.139Z,801.72
2019-03-01T00:26:08.430Z,801.69
2019-03-01T00:26:12.725Z,801.75
2019-03-01T00:26:17.014Z,801.73
2019-03-01T00:26:21.304Z,801.72
2019-03-01T00:26:25.599Z,801.74
2019-03-01T00:26:29.891Z,801.69
2019-03-01T00:26:34.190Z,801.75
2019-03-01T00:26:38.485Z,801.75
2019-03-01T00:26:42.770Z,801.71
2019-03-01T00:26:46.986Z,801.72
2019-03-01T00:26:51.091Z,801.68
2019-03-01T00:26:55.292Z,801.73
2019-03-01T00:26:59.594Z,801.72
2019-03-01T00:27:03.901Z,801.75
2019-03-01T00:27:08.191Z,801.74
2019-03-01T00:27:12.384Z,801.72
2019-03-01T00:27:16.674Z,801.74
2019-03-01T00:27:20.970Z,801.72
2019-03-01T00:27:25.270Z,801.77
2019-03-01T00:27:29.568Z,801.74
2019-03-01T00:27:33.856Z,801.74
2019-03-01T00:27:38.146Z,801.77
2019-03-01T00:27:42.431Z,801.77
2019-03-01T00:27:46.722Z,801.75
2019-03-01T00:27:51.026Z,801.78
2019-03-01T00:27:55.220Z,801.78
2019-03-01T00:27:59.513Z,801.78
2019-03-01T00:28:03.959Z,801.8
2019-03-01T00:28:08.246Z,801.77
2019-03-01T00:28:12.556Z,801.77
2019-03-01T00:28:16.870Z,801.79
2019-03-01T00:28:21.168Z,801.8
2019-03-01T00:28:25.460Z,801.81
2019-03-01T00:28:29.759Z,801.79
2019-03-01T00:28:34.057Z,801.83
2019-03-01T00:28:38.389Z,801.78
2019-03-01T00:28:42.679Z,801.81
2019-03-01T00:28:46.984Z,801.82
2019-03-01T00:28:51.188Z,801.82
2019-03-01T00:28:55.390Z,801.85
2019-03-01T00:28:59.697Z,801.8
2019-03-01T00:29:04.050Z,801.8
2019-03-01T00:29:08.364Z,801.82
2019-03-01T00:29:12.653Z,801.82
2019-03-01T00:29:16.952Z,801.82
2019-03-01T00:29:21.156Z,801.85
2019-03-01T00:29:25.352Z,801.85
2019-03-01T00:29:29.671Z,801.85
2019-03-01T00:29:33.973Z,801.8
2019-03-01T00:29:38.277Z,801.79
2019-03-01T00:29:42.572Z,801.8
2019-03-01T00:29:46.861Z,801.81
2019-03-01T00:29:50.991Z,801.8
2019-03-01T00:29:55.286Z,801.8
2019-03-01T00:29:59.423Z,801.82
2019-03-01T00:30:03.792Z,801.82
2019-03-01T00:30:08.094Z,801.81
2019-03-01T00:30:12.399Z,801.88
2019-03-01T00:30:16.599Z,801.87
2019-03-01T00:30:20.890Z,801.9
2019-03-01T00:30:25.185Z,801.87
2019-03-01T00:30:29.485Z,801.85
2019-03-01T00:30:33.802Z,801.86
2019-03-01T00:30:38.099Z,801.9
2019-03-01T00:30:42.289Z,801.91
2019-03-01T00:30:46.391Z,801.93
2019-03-01T00:30:50.724Z,801.93
2019-03-01T00:30:55.007Z,801.91
2019-03-01T00:30:59.468Z,801.91
2019-03-01T00:31:03.771Z,801.94
2019-03-01T00:31:07.986Z,801.92
2019-03-01T00:31:12.277Z,801.95
2019-03-01T00:31:16.562Z,801.93
2019-03-01T00:31:20.775Z,801.93
2019-03-01T00:31:25.068Z,801.96
2019-03-01T00:31:31.324Z,801.91
2019-03-01T00:31:35.584Z,801.93
2019-03-01T00:31:39.875Z,801.99
2019-03-01T00:31:44.199Z,801.96
2019-03-01T00:31:48.486Z,802
2019-03-01T00:31:52.685Z,801.97
2019-03-01T00:31:57.002Z,802.02
2019-03-01T00:32:01.305Z,801.99
2019-03-01T00:32:05.779Z,802.01
2019-03-01T00:32:10.066Z,801.99
2019-03-01T00:32:14.357Z,802.01
2019-03-01T00:32:18.646Z,802
2019-03-01T00:32:22.941Z,801.98
2019-03-01T00:32:27.231Z,802.02
2019-03-01T00:32:31.521Z,802.02
2019-03-01T00:32:35.811Z,801.98
2019-03-01T00:32:40.101Z,801.99
2019-03-01T00:32:44.221Z,801.98
2019-03-01T00:32:48.417Z,801.99
2019-03-01T00:32:52.702Z,802.01
2019-03-01T00:32:57.003Z,801.97
2019-03-01T00:33:01.293Z,801.89
2019-03-01T00:33:05.493Z,801.92
2019-03-01T00:33:09.837Z,801.9
2019-03-01T00:33:14.135Z,801.98
2019-03-01T00:33:18.345Z,801.98
2019-03-01T00:33:22.661Z,802
2019-03-01T00:33:26.909Z,801.98
2019-03-01T00:33:31.198Z,801.99
2019-03-01T00:33:35.482Z,802
2019-03-01T00:33:39.786Z,801.93
2019-03-01T00:33:43.982Z,801.93
2019-03-01T00:33:48.268Z,801.97
2019-03-01T00:33:52.554Z,801.96
2019-03-01T00:33:56.848Z,801.96
2019-03-01T00:34:01.053Z,801.96
2019-03-01T00:34:05.476Z,801.97
2019-03-01T00:34:09.793Z,802.01
2019-03-01T00:34:14.089Z,802.02
2019-03-01T00:34:18.374Z,802
2019-03-01T00:34:22.661Z,802
2019-03-01T00:34:26.956Z,801.99
2019-03-01T00:34:31.283Z,801.99
2019-03-01T00:34:35.575Z,802.01
2019-03-01T00:34:39.868Z,801.96
2019-03-01T00:34:44.170Z,802.01
2019-03-01T00:34:48.476Z,801.98
2019-03-01T00:34:52.855Z,802.03
2019-03-01T00:34:57.158Z,801.98
2019-03-01T00:35:01.462Z,801.99
2019-03-01T00:35:05.670Z,801.99
2019-03-01T00:35:09.968Z,801.99
2019-03-01T00:35:14.272Z,801.98
2019-03-01T00:35:18.572Z,801.98
2019-03-01T00:35:22.866Z,802
2019-03-01T00:35:27.164Z,801.93
2019-03-01T00:35:31.470Z,802.02
2019-03-01T00:35:35.753Z,802
2019-03-01T00:35:40.059Z,802.01
2019-03-01T00:35:44.386Z,802.03
2019-03-01T00:35:48.672Z,802.01
2019-03-01T00:35:52.961Z,802.02
2019-03-01T00:35:57.258Z,802.03
2019-03-01T00:36:01.444Z,802
2019-03-01T00:36:05.633Z,802
2019-03-01T00:36:09.943Z,802.01
2019-03-01T00:36:14.045Z,801.99
2019-03-01T00:36:18.332Z,801.95
2019-03-01T00:36:22.619Z,802
2019-03-01T00:36:26.909Z,801.98
2019-03-01T00:36:31.208Z,802.01
2019-03-01T00:36:35.510Z,801.96
2019-03-01T00:36:39.806Z,802.02
2019-03-01T00:36:44.020Z,802.02
2019-03-01T00:36:48.311Z,802
2019-03-01T00:36:52.609Z,802.01
2019-03-01T00:36:56.898Z,802.03
2019-03-01T00:37:01.189Z,802.04
2019-03-01T00:37:05.577Z,801.94
2019-03-01T00:37:09.870Z,802
2019-03-01T00:37:14.161Z,802.01
2019-03-01T00:37:18.357Z,802.02
2019-03-01T00:37:22.678Z,802.04
2019-03-01T00:37:27.015Z,802.03
2019-03-01T00:37:31.306Z,802.05
2019-03-01T00:37:35.507Z,802.03
2019-03-01T00:37:39.798Z,802.03
2019-03-01T00:37:44.088Z,802.05
2019-03-01T00:37:48.376Z,802.03
2019-03-01T00:37:52.625Z,802.07
2019-03-01T00:37:56.922Z,802.05
2019-03-01T00:38:01.125Z,802.08
2019-03-01T00:38:05.531Z,802.08
2019-03-01T00:38:09.824Z,802.07
2019-03-01T00:38:14.115Z,802.06
2019-03-01T00:38:18.410Z,802.09
2019-03-01T00:38:22.742Z,802.11
2019-03-01T00:38:26.947Z,802.1
2019-03-01T00:38:31.241Z,802.1
2019-03-01T00:38:35.526Z,802.1
2019-03-01T00:38:39.827Z,802.1
2019-03-01T00:38:44.132Z,802.13
2019-03-01T00:38:48.427Z,802.14
2019-03-01T00:38:52.721Z,802.1
2019-03-01T00:38:57.023Z,802.12
2019-03-01T00:39:01.315Z,802.15
2019-03-01T00:39:05.607Z,802.16
2019-03-01T00:39:09.896Z,802.15
2019-03-01T00:39:14.193Z,802.14
2019-03-01T00:39:18.497Z,802.16
2019-03-01T00:39:22.788Z,802.17
2019-03-01T00:39:26.996Z,802.17
2019-03-01T00:39:31.294Z,802.15
2019-03-01T00:39:35.409Z,802.17
2019-03-01T00:39:39.707Z,802.1
2019-03-01T00:39:44.004Z,802.14
2019-03-01T00:39:48.291Z,802.16
2019-03-01T00:39:52.580Z,802.18
2019-03-01T00:39:56.870Z,802.14
2019-03-01T00:40:01.170Z,802.13
2019-03-01T00:40:05.531Z,802.14
2019-03-01T00:40:09.826Z,802.12
2019-03-01T00:40:14.015Z,802.13
2019-03-01T00:40:18.218Z,802.14
2019-03-01T00:40:22.552Z,802.16
2019-03-01T00:40:26.839Z,802.17
2019-03-01T00:40:31.131Z,802.18
2019-03-01T00:40:35.418Z,802.19
2019-03-01T00:40:39.755Z,802.18
2019-03-01T00:40:44.057Z,802.18
2019-03-01T00:40:48.346Z,802.2
2019-03-01T00:40:52.634Z,802.21
2019-03-01T00:40:56.919Z,802.21
2019-03-01T00:41:01.213Z,802.18
2019-03-01T00:41:05.710Z,802.2
2019-03-01T00:41:10.026Z,802.19
2019-03-01T00:41:14.317Z,802.18
2019-03-01T00:41:18.603Z,802.19
2019-03-01T00:41:22.899Z,802.12
2019-03-01T00:41:27.105Z,802.2
2019-03-01T00:41:31.397Z,802.17
2019-03-01T00:41:35.730Z,802.23
2019-03-01T00:41:40.020Z,802.19
2019-03-01T00:41:44.312Z,802.16
2019-03-01T00:41:48.607Z,802.21
2019-03-01T00:41:52.902Z,802.17
2019-03-01T00:41:57.189Z,802.21
2019-03-01T00:42:01.494Z,802.17
2019-03-01T00:42:05.802Z,802.13
2019-03-01T00:42:10.113Z,802.13
2019-03-01T00:42:14.412Z,802.12
2019-03-01T00:42:18.701Z,802.13
2019-03-01T00:42:22.992Z,802.16
2019-03-01T00:42:27.297Z,802.12
2019-03-01T00:42:31.602Z,802.13
2019-03-01T00:42:35.920Z,802.13
2019-03-01T00:42:40.265Z,802.14
2019-03-01T00:42:44.554Z,802.11
2019-03-01T00:42:48.750Z,802.09
2019-03-01T00:42:53.039Z,802.07
2019-03-01T00:42:57.343Z,802.09
2019-03-01T00:43:01.634Z,802.1
2019-03-01T00:43:05.936Z,802.1
2019-03-01T00:43:10.246Z,802.07
2019-03-01T00:43:14.538Z,802.09
2019-03-01T00:43:18.823Z,802.05
2019-03-01T00:43:23.119Z,802.07
2019-03-01T00:43:27.436Z,802.07
2019-03-01T00:43:31.741Z,802.03
2019-03-01T00:43:36.029Z,802.02
2019-03-01T00:43:40.329Z,802.03
2019-03-01T00:43:44.628Z,802.02
2019-03-01T00:43:48.935Z,802
2019-03-01T00:43:53.222Z,801.98
2019-03-01T00:43:57.512Z,801.95
2019-03-01T00:44:01.819Z,801.9
2019-03-01T00:44:06.009Z,801.91
2019-03-01T00:44:10.297Z,801.93
2019-03-01T00:44:14.594Z,801.91
2019-03-01T00:44:18.938Z,801.93
2019-03-01T00:44:23.133Z,801.87
2019-03-01T00:44:27.430Z,801.87
2019-03-01T00:44:31.762Z,801.89
2019-03-01T00:44:36.047Z,801.88
2019-03-01T00:44:40.356Z,801.86
2019-03-01T00:44:44.554Z,801.82
2019-03-01T00:44:51.809Z,801.81
2019-03-01T00:44:56.002Z,801.82
2019-03-01T00:45:00.381Z,801.77
2019-03-01T00:45:04.685Z,801.78
2019-03-01T00:45:08.991Z,801.77
2019-03-01T00:45:13.189Z,801.8
2019-03-01T00:45:17.481Z,801.8
2019-03-01T00:45:21.774Z,801.79
2019-03-01T00:45:26.003Z,801.77
2019-03-01T00:45:30.245Z,801.79
2019-03-01T00:45:34.533Z,801.78
2019-03-01T00:45:38.630Z,801.78
2019-03-01T00:45:42.821Z,801.78
2019-03-01T00:45:47.131Z,801.75
2019-03-01T00:45:51.344Z,801.75
2019-03-01T00:45:55.547Z,801.75
2019-03-01T00:45:59.855Z,801.73
2019-03-01T00:46:04.058Z,801.77
2019-03-01T00:46:08.352Z,801.79
2019-03-01T00:46:12.647Z,801.75
2019-03-01T00:46:16.944Z,801.76
2019-03-01T00:46:21.137Z,801.75
2019-03-01T00:46:25.436Z,801.72
2019-03-01T00:46:29.738Z,801.75
2019-03-01T00:46:34.038Z,801.76
2019-03-01T00:46:38.341Z,801.7
2019-03-01T00:46:42.656Z,801.7
2019-03-01T00:46:46.953Z,801.73
2019-03-01T00:46:51.288Z,801.69
2019-03-01T00:46:55.590Z,801.68
2019-03-01T00:46:59.888Z,801.7
2019-03-01T00:47:04.339Z,801.66
2019-03-01T00:47:08.555Z,801.7
2019-03-01T00:47:12.865Z,801.67
2019-03-01T00:47:17.080Z,801.64
2019-03-01T00:47:21.401Z,801.65
2019-03-01T00:47:25.727Z,801.67
2019-03-01T00:47:30.042Z,801.65
2019-03-01T00:47:34.241Z,801.68
2019-03-01T00:47:38.539Z,801.67
2019-03-01T00:47:42.839Z,801.64
2019-03-01T00:47:47.130Z,801.62
2019-03-01T00:47:51.331Z,801.65
2019-03-01T00:47:55.704Z,801.66
2019-03-01T00:47:59.990Z,801.64
2019-03-01T00:48:04.206Z,801.6
2019-03-01T00:48:08.491Z,801.62
2019-03-01T00:48:12.813Z,801.63
2019-03-01T00:48:17.120Z,801.61
2019-03-01T00:48:21.407Z,801.57
2019-03-01T00:48:25.693Z,801.58
2019-03-01T00:48:29.877Z,801.56
2019-03-01T00:48:34.231Z,801.58
2019-03-01T00:48:38.533Z,801.6
2019-03-01T00:48:42.729Z,801.58
2019-03-01T00:48:47.047Z,801.55
2019-03-01T00:48:51.340Z,801.54
2019-03-01T00:48:55.639Z,801.54
2019-03-01T00:48:59.963Z,801.49
2019-03-01T00:49:04.404Z,801.45
2019-03-01T00:49:08.694Z,801.48
2019-03-01T00:49:12.812Z,801.5
2019-03-01T00:49:17.099Z,801.47
2019-03-01T00:49:21.299Z,801.48
2019-03-01T00:49:25.519Z,801.47
2019-03-01T00:49:29.843Z,801.46
2019-03-01T00:49:34.141Z,801.45
2019-03-01T00:49:38.439Z,801.44
2019-03-01T00:49:42.728Z,801.45
2019-03-01T00:49:47.055Z,801.39
2019-03-01T00:49:51.355Z,801.45
2019-03-01T00:49:55.648Z,801.46
2019-03-01T00:49:59.992Z,801.41
2019-03-01T00:50:04.357Z,801.44
2019-03-01T00:50:08.670Z,801.41
2019-03-01T00:50:12.781Z,801.41
2019-03-01T00:50:17.076Z,801.4
2019-03-01T00:50:21.187Z,801.38
2019-03-01T00:50:25.385Z,801.39
2019-03-01T00:50:29.691Z,801.38
2019-03-01T00:50:33.995Z,801.38
2019-03-01T00:50:38.283Z,801.36
2019-03-01T00:50:42.592Z,801.34
2019-03-01T00:50:46.594Z,801.36
2019-03-01T00:50:50.892Z,801.37
2019-03-01T00:50:55.190Z,801.34
2019-03-01T00:50:59.499Z,801.32
2019-03-01T00:51:03.939Z,801.33
2019-03-01T00:51:08.256Z,801.31
2019-03-01T00:51:12.548Z,801.3
2019-03-01T00:51:16.841Z,801.29
2019-03-01T00:51:21.157Z,801.26
2019-03-01T00:51:25.458Z,801.23
2019-03-01T00:51:29.745Z,801.24
2019-03-01T00:51:33.944Z,801.21
2019-03-01T00:51:38.142Z,801.23
2019-03-01T00:51:42.334Z,801.21
2019-03-01T00:51:46.532Z,801.2
2019-03-01T00:51:50.858Z,801.24
2019-03-01T00:51:55.050Z,801.15
2019-03-01T00:51:59.387Z,801.16
2019-03-01T00:52:03.721Z,801.2
2019-03-01T00:52:08.023Z,801.13
2019-03-01T00:52:12.328Z,801.13
2019-03-01T00:52:16.528Z,801.11
2019-03-01T00:52:20.854Z,801.17
2019-03-01T00:52:25.166Z,801.14
2019-03-01T00:52:29.464Z,801.16
2019-03-01T00:52:33.653Z,801.17
2019-03-01T00:52:37.852Z,801.21
2019-03-01T00:52:41.870Z,801.2
2019-03-01T00:52:46.164Z,801.17
2019-03-01T00:52:50.366Z,801.12
2019-03-01T00:52:54.559Z,801.13
2019-03-01T00:52:58.856Z,801.2
2019-03-01T00:53:03.062Z,801.17
2019-03-01T00:53:07.354Z,801.16
2019-03-01T00:53:11.659Z,801.16
2019-03-01T00:53:15.867Z,801.15
2019-03-01T00:53:20.056Z,801.14
2019-03-01T00:53:24.251Z,801.13
2019-03-01T00:53:28.442Z,801.1
2019-03-01T00:53:32.636Z,801.14
2019-03-01T00:53:36.828Z,801.13
2019-03-01T00:53:41.130Z,801.13
2019-03-01T00:53:45.444Z,801.11
2019-03-01T00:53:49.781Z,801.13
2019-03-01T00:53:53.981Z,801.12